Time;durP1;ratioP1;P1;durP2;ratioP2;P2;SDS_P1;SDS_P2;PMS_P1;PMS_P2;Temp;Humidity;BMP_temperature;BMP_pressure;BME280_temperature;BME280_humidity;BME280_pressure;Samples;Min_cycle;Max_cycle;Signal;HPM_P1;HPM_P2
2021/01/03 00:02:05;;;;;;;14.45;8.40;;;;;;;5.46;67.00;101526.03;1716027;82;21486;-44
2021/01/03 00:04:34;;;;;;;12.68;8.30;;;;;;;5.41;67.13;101522.59;1716086;83;21163;-44
2021/01/03 00:07:02;;;;;;;13.18;8.78;;;;;;;5.36;67.25;101526.41;1716059;83;21210;-44
2021/01/03 00:09:30;;;;;;;11.43;7.50;;;;;;;5.38;67.37;101527.58;1715966;82;20926;-44
2021/01/03 00:11:58;;;;;;;11.57;7.85;;;;;;;5.39;67.34;101530.07;1716072;83;21060;-47
2021/01/03 00:14:30;;;;;;;11.08;7.78;;;;;;;5.40;67.28;101534.95;1716184;83;22096;-44
2021/01/03 00:17:01;;;;;;;13.43;8.80;;;;;;;5.36;67.30;101526.41;1716326;83;21503;-46
2021/01/03 00:19:29;;;;;;;12.53;8.83;;;;;;;5.34;67.34;101537.94;1716201;83;22275;-43
2021/01/03 00:21:56;;;;;;;12.07;8.15;;;;;;;5.34;67.27;101533.06;1716109;83;20953;-44
2021/01/03 00:24:24;;;;;;;12.07;7.85;;;;;;;5.28;67.32;101529.83;1716106;83;21139;-45
2021/01/03 00:26:52;;;;;;;9.93;7.33;;;;;;;5.23;67.39;101527.73;1712407;83;21202;-44
2021/01/03 00:29:20;;;;;;;16.70;8.20;;;;;;;5.19;67.48;101522.41;1708520;84;21076;-44
2021/01/03 00:31:49;;;;;;;10.98;7.83;;;;;;;5.14;67.59;101520.31;1708511;83;21370;-46
2021/01/03 00:34:18;;;;;;;11.75;8.28;;;;;;;5.10;67.65;101524.44;1708433;84;20957;-44
2021/01/03 00:36:46;;;;;;;11.97;8.28;;;;;;;5.08;67.77;101529.73;1708585;82;21531;-43
2021/01/03 00:39:14;;;;;;;11.93;7.60;;;;;;;5.02;67.84;101527.33;1708473;83;21110;-45
2021/01/03 00:41:44;;;;;;;12.05;8.23;;;;;;;4.98;68.02;101519.83;1708503;84;21183;-44
2021/01/03 00:44:13;;;;;;;12.60;7.58;;;;;;;4.93;68.07;101518.55;1687878;84;21204;-45
2021/01/03 00:46:41;;;;;;;11.48;8.03;;;;;;;4.91;68.18;101519.25;1708453;83;21085;-43
2021/01/03 00:49:09;;;;;;;11.35;7.37;;;;;;;4.90;68.38;101521.64;1708474;84;21483;-46
2021/01/03 00:51:37;;;;;;;12.98;7.47;;;;;;;4.92;68.34;101521.46;1708406;84;21088;-46
2021/01/03 00:54:05;;;;;;;11.20;7.47;;;;;;;4.89;68.40;101518.63;1708485;84;21033;-44
2021/01/03 00:56:33;;;;;;;12.85;8.23;;;;;;;4.83;68.42;101507.81;1708489;84;21341;-45
2021/01/03 00:59:01;;;;;;;10.63;8.30;;;;;;;4.89;68.31;101518.63;1708505;83;20973;-44
2021/01/03 01:01:28;;;;;;;12.28;7.87;;;;;;;4.89;68.21;101507.02;1708490;84;20929;-46
2021/01/03 01:03:56;;;;;;;11.03;8.15;;;;;;;4.81;68.28;101504.47;1708464;84;20986;-45
2021/01/03 01:06:24;;;;;;;12.23;8.28;;;;;;;4.75;68.37;101505.27;1708436;83;21566;-46
2021/01/03 01:08:52;;;;;;;11.78;8.33;;;;;;;4.69;68.47;101503.69;1708449;82;21199;-45
2021/01/03 01:11:22;;;;;;;12.00;8.33;;;;;;;4.65;68.47;101515.89;1708404;84;21068;-45
2021/01/03 01:13:50;;;;;;;11.48;7.03;;;;;;;4.62;68.52;101505.52;1665346;84;21099;-44
2021/01/03 01:16:18;;;;;;;12.43;8.90;;;;;;;4.58;68.58;101512.33;1708449;84;21068;-45
2021/01/03 01:18:46;;;;;;;14.45;9.20;;;;;;;4.48;68.71;101505.63;1708493;83;21123;-47
2021/01/03 01:21:13;;;;;;;12.65;8.78;;;;;;;4.47;68.85;101506.14;1708388;83;21646;-43
2021/01/03 01:23:40;;;;;;;12.37;8.63;;;;;;;4.50;68.79;101504.37;1708499;84;21068;-43
2021/01/03 01:26:08;;;;;;;13.10;8.08;;;;;;;4.53;68.71;101508.04;1708288;83;21076;-46
2021/01/03 01:28:36;;;;;;;11.60;8.55;;;;;;;4.57;68.63;101512.02;1708522;84;20997;-45
2021/01/03 01:31:04;;;;;;;14.50;8.15;;;;;;;4.57;68.67;101520.10;1708449;84;20981;-45
2021/01/03 01:33:33;;;;;;;12.58;8.43;;;;;;;4.57;68.66;101518.75;1708423;84;22782;-43
2021/01/03 01:36:01;;;;;;;10.25;7.60;;;;;;;4.58;68.66;101523.11;1708430;84;21495;-43
2021/01/03 01:38:29;;;;;;;11.20;8.05;;;;;;;4.59;68.67;101517.20;1708442;84;20958;-43
2021/01/03 01:40:57;;;;;;;11.15;8.80;;;;;;;4.61;68.79;101514.64;1708425;84;21080;-44
2021/01/03 01:43:25;;;;;;;13.43;8.90;;;;;;;4.59;68.71;101521.24;1708467;84;20985;-44
2021/01/03 01:45:53;;;;;;;10.88;7.80;;;;;;;4.55;68.76;101521.31;1708454;84;21434;-44
2021/01/03 01:48:27;;;;;;;10.68;6.85;;;;;;;4.48;68.94;101528.02;1708334;84;21093;-43
2021/01/03 01:51:03;;;;;;;11.08;7.55;;;;;;;4.41;69.38;101527.14;1708428;84;20994;-43
2021/01/03 01:53:45;;;;;;;10.50;7.08;;;;;;;4.36;69.52;101534.98;1708609;83;21075;-44
2021/01/03 01:56:33;;;;;;;11.68;7.85;;;;;;;4.41;69.79;101551.39;1708507;84;21124;-43
2021/01/03 01:59:21;;;;;;;13.45;7.08;;;;;;;4.48;69.78;101537.96;1706926;84;21432;-43
2021/01/03 02:02:11;;;;;;;8.85;7.03;;;;;;;4.58;69.57;101546.02;1676958;84;20957;-43
2021/01/03 02:04:57;;;;;;;12.15;8.65;;;;;;;4.65;69.27;101544.19;1708486;83;21491;-43
2021/01/03 02:07:33;;;;;;;12.25;8.45;;;;;;;4.69;69.07;101544.64;1708638;83;21140;-43
2021/01/03 02:10:39;;;;;;;10.40;8.20;;;;;;;4.71;69.03;101551.17;1890045;75;23486;-43
2021/01/03 02:13:15;;;;;;;;;;;;;;;4.65;69.11;101552.28;1863810;77;20903;-43
2021/01/03 02:15:43;;;;;;;13.68;8.95;;;;;;;4.62;68.94;101560.78;1861039;77;21328;-43
2021/01/03 02:18:12;;;;;;;11.97;9.05;;;;;;;4.58;68.92;101560.84;1860891;77;21002;-42
2021/01/03 02:21:09;;;;;;;12.28;9.60;;;;;;;4.59;68.94;101557.63;1860980;77;20934;-43
2021/01/03 02:23:45;;;;;;;12.63;9.03;;;;;;;4.62;68.97;101551.86;1841193;77;20926;-44
2021/01/03 02:26:13;;;;;;;12.78;8.73;;;;;;;4.54;69.01;101562.26;1861098;77;21132;-42
2021/01/03 02:28:43;;;;;;;11.75;7.62;;;;;;;4.50;69.07;101551.55;1860830;77;21321;-44
2021/01/03 02:31:18;;;;;;;12.68;8.80;;;;;;;4.54;69.05;101543.91;1860998;77;21587;-44
2021/01/03 02:33:48;;;;;;;12.35;8.78;;;;;;;4.55;69.00;101545.05;1860998;77;20919;-44
2021/01/03 02:36:25;;;;;;;13.00;9.33;;;;;;;4.53;68.86;101548.98;1860930;77;21033;-44
2021/01/03 02:39:33;;;;;;;12.73;7.95;;;;;;;4.51;69.00;101553.72;1861009;77;20930;-43
2021/01/03 02:42:28;;;;;;;13.60;8.58;;;;;;;4.49;69.07;101548.54;1860954;77;21494;-43
2021/01/03 02:44:56;;;;;;;14.13;9.25;;;;;;;4.47;69.13;101549.26;1860926;77;20942;-44
2021/01/03 02:47:28;;;;;;;11.95;8.28;;;;;;;4.46;69.25;101554.83;1860956;77;21005;-44
2021/01/03 02:49:56;;;;;;;13.00;9.40;;;;;;;4.48;69.19;101555.48;1857958;77;20926;-42
2021/01/03 02:52:32;;;;;;;13.25;9.30;;;;;;;4.45;69.15;101553.16;1795364;78;20966;-44
2021/01/03 02:54:59;;;;;;;13.62;9.25;;;;;;;4.42;69.11;101558.44;1827363;78;21092;-47
2021/01/03 02:57:27;;;;;;;15.48;9.63;;;;;;;4.41;69.19;101556.27;1827158;78;20926;-44
2021/01/03 02:59:55;;;;;;;10.43;8.40;;;;;;;4.43;69.18;101561.45;1827201;78;20919;-43
2021/01/03 03:02:23;;;;;;;12.80;9.23;;;;;;;4.43;69.15;101559.59;1827261;78;21025;-43
2021/01/03 03:04:51;;;;;;;12.25;9.03;;;;;;;4.45;69.15;101559.90;1827216;78;21260;-44
2021/01/03 03:07:18;;;;;;;13.00;8.35;;;;;;;4.47;69.29;101556.00;1827168;78;21488;-44
2021/01/03 03:09:47;;;;;;;11.80;8.70;;;;;;;4.45;69.14;101557.20;1829208;78;21021;-43
2021/01/03 03:12:14;;;;;;;13.53;8.48;;;;;;;4.36;69.14;101554.67;1830383;78;21528;-44
2021/01/03 03:14:42;;;;;;;12.05;8.13;;;;;;;4.33;69.41;101560.95;1830341;78;20977;-43
2021/01/03 03:17:11;;;;;;;13.95;8.50;;;;;;;4.35;69.38;101552.15;1830505;78;21041;-44
2021/01/03 03:19:39;;;;;;;12.20;8.60;;;;;;;4.38;69.37;101557.99;1830295;78;21355;-44
2021/01/03 03:22:07;;;;;;;17.57;10.88;;;;;;;4.42;69.33;101557.92;1829738;78;20922;-43
2021/01/03 03:24:34;;;;;;;20.50;12.98;;;;;;;4.41;69.28;101562.17;1829814;78;21544;-43
2021/01/03 03:27:03;;;;;;;16.25;8.98;;;;;;;4.36;69.48;101545.75;1829793;78;20973;-44
2021/01/03 03:29:30;;;;;;;12.28;8.48;;;;;;;4.35;69.58;101549.45;1829772;78;21143;-44
2021/01/03 03:31:58;;;;;;;11.45;7.67;;;;;;;4.36;69.62;101556.53;1829924;78;22258;-43
2021/01/03 03:34:27;;;;;;;11.63;7.83;;;;;;;4.39;69.64;101554.78;1829705;78;20958;-43
2021/01/03 03:36:55;;;;;;;9.13;6.28;;;;;;;4.46;69.50;101553.48;1829812;78;21476;-43
2021/01/03 03:39:24;;;;;;;12.53;8.33;;;;;;;4.51;69.29;101559.98;1829776;78;20981;-43
2021/01/03 03:41:56;;;;;;;13.25;7.97;;;;;;;4.52;69.25;101564.33;1829816;78;20998;-44
2021/01/03 03:44:24;;;;;;;11.00;7.40;;;;;;;4.55;69.22;101558.53;1829804;78;21184;-43
2021/01/03 03:46:54;;;;;;;13.85;8.73;;;;;;;4.61;69.12;101559.12;1829726;78;20950;-44
2021/01/03 03:49:22;;;;;;;12.47;8.25;;;;;;;4.61;68.94;101560.47;1829825;78;20970;-43
2021/01/03 03:51:54;;;;;;;15.45;8.10;;;;;;;4.55;69.02;101571.17;1829797;77;20918;-43
2021/01/03 03:54:22;;;;;;;13.45;7.70;;;;;;;4.50;69.10;101565.02;1829900;78;21564;-44
2021/01/03 03:56:59;;;;;;;12.70;6.92;;;;;;;4.52;69.13;101555.41;1829877;78;22172;-44
2021/01/03 03:59:27;;;;;;;13.45;7.58;;;;;;;4.47;69.14;101569.98;1828939;78;21064;-44
2021/01/03 04:01:55;;;;;;;14.18;8.43;;;;;;;4.39;69.32;101562.34;1829854;78;21449;-44
2021/01/03 04:04:24;;;;;;;8.98;6.15;;;;;;;4.37;69.45;101568.45;1829725;78;20985;-43
2021/01/03 04:06:52;;;;;;;9.58;5.97;;;;;;;4.33;69.58;101573.91;1829783;78;21547;-43
2021/01/03 04:09:21;;;;;;;10.18;5.83;;;;;;;4.30;69.67;101575.63;1829345;78;22429;-44
2021/01/03 04:11:50;;;;;;;9.15;5.65;;;;;;;4.28;69.70;101579.56;1829758;78;21472;-44
2021/01/03 04:14:21;;;;;;;8.25;5.55;;;;;;;4.27;69.62;101577.90;1829761;78;21519;-44
2021/01/03 04:16:56;;;;;;;8.05;5.45;;;;;;;4.24;69.62;101583.66;1829745;78;21045;-44
2021/01/03 04:19:25;;;;;;;7.30;5.40;;;;;;;4.23;69.58;101593.61;1829812;78;21013;-44
2021/01/03 04:22:04;;;;;;;6.58;5.17;;;;;;;4.25;69.56;101581.28;1829758;78;21240;-43
2021/01/03 04:24:32;;;;;;;8.60;5.97;;;;;;;4.25;69.55;101585.33;1829784;78;21535;-43
2021/01/03 04:27:04;;;;;;;10.88;5.65;;;;;;;4.27;69.71;101580.59;1829748;78;21484;-44
2021/01/03 04:29:32;;;;;;;6.87;4.90;;;;;;;4.32;69.58;101584.38;1829704;78;20982;-43
2021/01/03 04:32:04;;;;;;;12.82;5.90;;;;;;;4.36;69.47;101593.74;1829708;78;21452;-44
2021/01/03 04:34:33;;;;;;;9.05;5.60;;;;;;;4.37;69.47;101587.31;1829791;78;22135;-43
2021/01/03 04:37:01;;;;;;;9.35;5.53;;;;;;;4.37;69.43;101590.53;1829664;78;21618;-43
2021/01/03 04:39:29;;;;;;;8.95;5.42;;;;;;;4.30;69.42;101585.06;1829710;78;20919;-44
2021/01/03 04:42:07;;;;;;;8.93;5.58;;;;;;;4.25;69.63;101588.84;1829712;78;21487;-44
2021/01/03 04:44:40;;;;;;;10.85;5.67;;;;;;;4.25;69.77;101585.33;1792900;80;21502;-43
2021/01/03 04:47:28;;;;;;;8.60;5.80;;;;;;;4.32;69.75;101590.28;1760343;81;21438;-44
2021/01/03 04:50:19;;;;;;;8.13;5.03;;;;;;;4.37;69.71;101583.28;1738607;81;20981;-44
2021/01/03 04:53:17;;;;;;;7.50;4.80;;;;;;;4.40;69.62;101586.91;1700863;84;20992;-43
2021/01/03 04:55:49;;;;;;;9.90;4.87;;;;;;;4.35;69.68;101584.48;1766336;81;21116;-44
2021/01/03 04:58:53;;;;;;;9.90;4.72;;;;;;;4.37;69.75;101587.84;1771171;81;20947;-43
2021/01/03 05:01:33;;;;;;;6.05;3.87;;;;;;;4.39;69.73;101591.16;1771335;81;21381;-43
2021/01/03 05:04:12;;;;;;;8.73;5.53;;;;;;;4.44;69.68;101588.71;1771280;81;21022;-43
2021/01/03 05:06:48;;;;;;;10.05;5.22;;;;;;;4.43;69.66;101596.48;1771125;80;20959;-43
2021/01/03 05:09:16;;;;;;;8.75;5.40;;;;;;;4.44;69.72;101596.80;1770703;81;20967;-44
2021/01/03 05:12:01;;;;;;;6.80;4.22;;;;;;;4.48;69.70;101595.91;1769248;81;20978;-43
2021/01/03 05:14:40;;;;;;;9.28;4.78;;;;;;;4.49;69.59;101599.74;1769108;80;21844;-43
2021/01/03 05:17:08;;;;;;;8.40;5.03;;;;;;;4.48;69.53;101594.56;1769154;81;20963;-42
2021/01/03 05:19:37;;;;;;;8.20;4.92;;;;;;;4.43;69.68;101608.09;1769144;80;20903;-44
2021/01/03 05:22:06;;;;;;;10.08;5.45;;;;;;;4.42;69.73;101609.13;1769171;81;20931;-45
2021/01/03 05:24:45;;;;;;;9.35;5.70;;;;;;;4.41;69.80;101613.37;1769192;81;21556;-44
2021/01/03 05:27:19;;;;;;;9.68;5.97;;;;;;;4.40;69.89;101617.07;1769171;81;21188;-44
2021/01/03 05:29:46;;;;;;;9.53;5.90;;;;;;;4.39;69.97;101618.10;1769185;81;21492;-43
2021/01/03 05:32:30;;;;;;;7.78;4.62;;;;;;;4.43;70.05;101623.43;1769153;81;20993;-43
2021/01/03 05:34:57;;;;;;;7.28;5.00;;;;;;;4.44;69.97;101611.62;1769169;81;20935;-43
2021/01/03 05:37:29;;;;;;;8.75;5.03;;;;;;;4.47;70.05;101616.63;1693893;81;20900;-44
2021/01/03 05:39:56;;;;;;;11.35;5.17;;;;;;;4.45;70.03;101615.98;1769179;80;22207;-44
2021/01/03 05:42:30;;;;;;;7.78;4.70;;;;;;;4.43;70.10;101615.34;1769059;81;20994;-44
2021/01/03 05:45:15;;;;;;;9.25;5.05;;;;;;;4.47;70.12;101619.84;1769252;81;20923;-44
2021/01/03 05:47:59;;;;;;;9.88;5.70;;;;;;;4.50;70.12;101615.39;1764166;80;21022;-45
2021/01/03 05:50:35;;;;;;;7.03;4.40;;;;;;;4.48;70.07;101612.91;1769116;79;21465;-44
2021/01/03 05:53:13;;;;;;;8.85;5.10;;;;;;;4.42;70.22;101613.69;1769124;81;21533;-43
2021/01/03 05:55:57;;;;;;;10.38;4.95;;;;;;;4.38;70.36;101623.17;1769098;81;21269;-43
2021/01/03 05:58:41;;;;;;;7.40;4.58;;;;;;;4.35;70.33;101619.51;1766366;81;21038;-43
2021/01/03 06:01:22;;;;;;;8.85;4.58;;;;;;;4.35;70.43;101627.08;1769136;80;21517;-44
2021/01/03 06:04:12;;;;;;;8.45;6.35;;;;;;;4.37;70.45;101624.21;1769199;81;20920;-44
2021/01/03 06:06:54;;;;;;;10.60;5.97;;;;;;;4.35;70.49;101622.20;1769083;81;21377;-43
2021/01/03 06:09:32;;;;;;;10.30;6.30;;;;;;;4.39;70.52;101623.49;1768952;81;21220;-44
2021/01/03 06:12:14;;;;;;;7.85;5.17;;;;;;;4.42;70.50;101623.95;1769194;81;20935;-44
2021/01/03 06:14:43;;;;;;;9.18;5.47;;;;;;;4.49;70.42;101617.78;1769090;80;20991;-45
2021/01/03 06:17:25;;;;;;;9.20;4.92;;;;;;;4.48;70.32;101621.51;1769236;81;21049;-45
2021/01/03 06:19:57;;;;;;;8.58;4.92;;;;;;;4.43;70.36;101620.73;1769064;81;22142;-45
2021/01/03 06:22:38;;;;;;;8.50;4.87;;;;;;;4.36;70.49;101618.51;1741613;81;21008;-44
2021/01/03 06:25:30;;;;;;;6.97;5.35;;;;;;;4.36;70.60;101625.25;1767348;80;21089;-43
2021/01/03 06:28:15;;;;;;;9.78;6.00;;;;;;;4.36;70.68;101610.42;1753044;80;21054;-46
2021/01/03 06:31:07;;;;;;;8.48;5.40;;;;;;;4.40;70.68;101619.25;1769340;81;21529;-44
2021/01/03 06:34:04;;;;;;;7.78;5.08;;;;;;;4.35;70.87;101631.63;1769075;80;21589;-43
2021/01/03 06:36:54;;;;;;;10.38;6.15;;;;;;;4.29;70.98;101633.76;1769064;81;22004;-43
2021/01/03 06:39:49;;;;;;;9.70;5.25;;;;;;;4.31;71.14;101634.39;1769100;80;21030;-44
2021/01/03 06:42:44;;;;;;;7.55;5.28;;;;;;;4.39;71.02;101620.28;1769095;80;21485;-44
2021/01/03 06:45:38;;;;;;;7.10;4.92;;;;;;;4.42;70.82;101621.25;1769345;81;21097;-45
2021/01/03 06:48:31;;;;;;;7.08;5.08;;;;;;;4.44;70.93;101614.31;1769129;80;21489;-44
2021/01/03 06:51:13;;;;;;;8.20;5.05;;;;;;;4.44;70.96;101621.05;1769002;79;20959;-45
2021/01/03 06:54:06;;;;;;;8.73;5.20;;;;;;;4.46;70.94;101612.28;1757684;81;20947;-43
2021/01/03 06:56:54;;;;;;;7.80;5.47;;;;;;;4.45;70.90;101622.72;1769175;81;21006;-45
2021/01/03 06:59:49;;;;;;;8.03;4.97;;;;;;;4.42;70.87;101621.25;1769294;81;21034;-45
2021/01/03 07:02:19;;;;;;;7.50;4.87;;;;;;;4.40;70.93;101621.94;1769384;81;21385;-44
2021/01/03 07:04:48;;;;;;;7.53;5.03;;;;;;;4.41;71.00;101616.07;1769178;80;20947;-44
2021/01/03 07:07:21;;;;;;;8.63;5.65;;;;;;;4.43;71.06;101617.52;1769242;81;20951;-44
2021/01/03 07:10:05;;;;;;;7.42;4.95;;;;;;;4.42;71.11;101619.08;1768099;80;21039;-43
2021/01/03 07:12:44;;;;;;;10.15;5.87;;;;;;;4.46;71.12;101622.20;1765693;80;20975;-44
2021/01/03 07:15:26;;;;;;;9.73;5.62;;;;;;;4.41;71.13;101630.89;1765734;81;21581;-45
2021/01/03 07:18:09;;;;;;;8.60;5.12;;;;;;;4.33;71.28;101627.80;1765688;80;21564;-45
2021/01/03 07:20:52;;;;;;;9.18;6.20;;;;;;;4.26;71.40;101630.09;1758693;81;20948;-44
2021/01/03 07:23:32;;;;;;;8.60;5.45;;;;;;;4.20;71.71;101628.17;1745509;81;21193;-44
2021/01/03 07:26:31;;;;;;;9.00;5.95;;;;;;;4.22;71.85;101636.39;1765785;80;21113;-44
2021/01/03 07:29:16;;;;;;;7.80;5.70;;;;;;;4.23;71.78;101631.33;1765775;80;22277;-45
2021/01/03 07:32:04;;;;;;;6.33;4.33;;;;;;;4.23;71.85;101628.62;1733440;81;21014;-43
2021/01/03 07:34:35;;;;;;;6.08;4.58;;;;;;;4.24;71.70;101626.77;1765759;80;20947;-44
2021/01/03 07:37:17;;;;;;;6.30;3.83;;;;;;;4.16;71.58;101626.39;1765763;81;21027;-44
2021/01/03 07:42:48;;;;;;;5.90;4.37;;;;;;;4.06;71.76;101633.44;1816086;79;22792;-44
2021/01/03 07:45:36;;;;;;;6.78;4.17;;;;;;;3.98;71.84;101634.06;1789176;80;21031;-44
2021/01/03 07:48:07;;;;;;;5.47;4.12;;;;;;;3.96;71.78;101628.88;1787901;80;23667;-45
2021/01/03 07:50:37;;;;;;;6.17;4.80;;;;;;;3.90;71.67;101626.91;1747351;81;21000;-44
2021/01/03 07:53:29;;;;;;;7.95;4.80;;;;;;;3.82;71.75;101633.27;1758018;81;21495;-44
2021/01/03 07:56:25;;;;;;;5.10;3.75;;;;;;;3.76;71.82;101627.81;1757968;81;20960;-44
2021/01/03 07:58:57;;;;;;;7.10;4.35;;;;;;;3.77;71.95;101638.38;1728821;81;21594;-44
2021/01/03 08:01:32;;;;;;;7.10;4.10;;;;;;;3.80;71.87;101631.28;1753377;80;22270;-44
2021/01/03 08:04:10;;;;;;;8.80;4.70;;;;;;;3.79;71.70;101620.17;1728848;81;20948;-44
2021/01/03 08:06:38;;;;;;;6.25;4.12;;;;;;;3.73;71.75;101628.17;1757938;81;20936;-49
2021/01/03 08:09:06;;;;;;;6.97;4.65;;;;;;;3.67;71.75;101621.69;1757907;81;21593;-45
2021/01/03 08:11:40;;;;;;;6.50;4.55;;;;;;;3.62;71.78;101614.19;1757857;80;21000;-45
2021/01/03 08:14:20;;;;;;;9.35;4.78;;;;;;;3.53;71.90;101618.51;1753353;80;21198;-45
2021/01/03 08:16:48;;;;;;;6.20;4.67;;;;;;;3.51;72.06;101617.36;1757416;81;20976;-46
2021/01/03 08:19:21;;;;;;;7.00;5.12;;;;;;;3.53;72.20;101622.03;1757813;81;21044;-46
2021/01/03 08:21:58;;;;;;;8.00;5.30;;;;;;;3.55;72.27;101618.66;1757868;81;21066;-47
2021/01/03 08:24:28;;;;;;;7.47;4.58;;;;;;;3.62;72.26;101616.87;1757867;81;21008;-47
2021/01/03 08:27:01;;;;;;;8.18;5.33;;;;;;;3.68;72.11;101622.52;1757036;81;21349;-49
2021/01/03 08:29:43;;;;;;;7.25;5.05;;;;;;;3.67;72.15;101619.52;1727175;81;21044;-49
2021/01/03 08:32:15;;;;;;;6.67;4.85;;;;;;;3.74;72.20;101617.21;1757779;81;20945;-47
2021/01/03 08:34:43;;;;;;;7.25;5.55;;;;;;;3.81;71.88;101624.88;1729378;81;21091;-48
2021/01/03 08:37:15;;;;;;;9.33;5.55;;;;;;;3.84;71.94;101620.95;1757881;81;20893;-48
2021/01/03 08:39:43;;;;;;;9.18;5.97;;;;;;;3.90;71.93;101625.09;1757937;80;22109;-47
2021/01/03 08:42:24;;;;;;;8.78;5.87;;;;;;;3.95;71.67;101621.80;1726327;81;20944;-48
2021/01/03 08:44:56;;;;;;;10.30;6.75;;;;;;;3.96;71.59;101619.45;1754870;81;21056;-47
2021/01/03 08:47:36;;;;;;;9.88;5.87;;;;;;;4.00;71.61;101615.33;1754909;81;21190;-47
2021/01/03 08:50:21;;;;;;;7.40;5.25;;;;;;;4.08;71.38;101617.91;1723966;80;21561;-49
2021/01/03 08:53:08;;;;;;;7.65;5.47;;;;;;;4.04;71.06;101617.13;1754725;81;21353;-48
2021/01/03 08:55:39;;;;;;;7.92;5.60;;;;;;;3.90;71.35;101613.45;1754287;81;21503;-47
2021/01/03 08:58:17;;;;;;;8.45;6.03;;;;;;;3.87;71.58;101617.89;1754453;81;21000;-47
2021/01/03 09:00:54;;;;;;;8.60;5.30;;;;;;;3.83;71.81;101612.56;1749626;81;21594;-48
2021/01/03 09:03:21;;;;;;;7.75;5.70;;;;;;;3.82;71.90;101617.63;1753485;81;20933;-47
2021/01/03 09:05:50;;;;;;;10.05;6.12;;;;;;;3.85;71.96;101621.27;1754319;80;21204;-49
2021/01/03 09:08:33;;;;;;;9.95;6.28;;;;;;;3.88;71.92;101623.59;1754422;81;21450;-48
2021/01/03 09:11:11;;;;;;;9.63;5.97;;;;;;;3.95;71.99;101630.39;1754422;81;21091;-49
2021/01/03 09:13:49;;;;;;;10.18;6.78;;;;;;;4.09;72.08;101626.82;1754384;81;20932;-46
2021/01/03 09:16:41;;;;;;;9.90;6.72;;;;;;;4.19;71.77;101625.99;1754041;81;21744;-48
2021/01/03 09:19:21;;;;;;;8.28;6.05;;;;;;;4.22;71.59;101632.88;1745500;80;21195;-48
2021/01/03 09:21:58;;;;;;;7.75;5.62;;;;;;;4.24;71.51;101632.16;1751760;81;21559;-48
2021/01/03 09:24:29;;;;;;;8.90;6.53;;;;;;;4.22;71.35;101630.18;1752363;81;20966;-48
2021/01/03 09:26:59;;;;;;;8.10;5.17;;;;;;;4.23;71.44;101638.06;1752332;81;21080;-49
2021/01/03 09:29:31;;;;;;;6.37;4.50;;;;;;;4.23;71.19;101631.33;1751226;81;21056;-50
2021/01/03 09:32:07;;;;;;;7.95;4.30;;;;;;;4.20;71.05;101636.25;1724152;83;21533;-48
2021/01/03 09:34:55;;;;;;;6.28;4.62;;;;;;;4.13;71.09;101627.59;1711547;81;21154;-51
2021/01/03 09:37:30;;;;;;;5.72;5.12;;;;;;;4.09;71.08;101624.13;1719295;81;21145;-51
2021/01/03 09:40:37;;;;;;;5.97;4.78;;;;;;;4.01;71.17;101618.36;1753115;81;21083;-52
2021/01/03 09:43:44;;;;;;;6.53;4.83;;;;;;;3.97;71.35;101620.28;1751311;80;21159;-53
2021/01/03 09:46:30;;;;;;;5.90;4.40;;;;;;;3.91;71.47;101617.84;1751325;82;21197;-50
2021/01/03 09:49:11;;;;;;;6.45;4.25;;;;;;;3.88;71.66;101621.73;1748767;82;21124;-48
2021/01/03 09:52:31;;;;;;;5.87;4.53;;;;;;;3.95;71.76;101619.10;1859195;76;23362;-48
2021/01/03 09:55:09;;;;;;;5.22;4.30;;;;;;;3.90;71.86;101614.80;1827002;78;20973;-48
2021/01/03 09:57:55;;;;;;;7.03;5.03;;;;;;;3.95;71.97;101617.75;1827056;78;22430;-51
2021/01/03 10:00:27;;;;;;;4.60;3.58;;;;;;;3.98;71.90;101608.48;1827182;78;20974;-50
2021/01/03 10:03:16;;;;;;;6.65;4.95;;;;;;;4.00;71.87;101598.34;1809251;78;21079;-50
2021/01/03 10:05:44;;;;;;;6.47;5.35;;;;;;;4.05;71.93;101600.77;1833842;78;20969;-51
2021/01/03 10:08:25;;;;;;;6.90;5.05;;;;;;;4.18;71.93;101590.66;1828991;78;20973;-50
2021/01/03 10:10:59;;;;;;;5.45;4.95;;;;;;;4.32;71.65;101591.11;1830973;78;21374;-50
2021/01/03 10:13:29;;;;;;;6.85;4.05;;;;;;;4.42;71.20;101578.66;1841176;77;20993;-48
2021/01/03 10:16:00;;;;;;;5.33;3.90;;;;;;;4.45;70.69;101590.89;1826077;78;21566;-48
2021/01/03 10:18:38;;;;;;;4.92;4.17;;;;;;;4.38;70.76;101588.98;1814584;78;21152;-48
2021/01/03 10:21:22;;;;;;;5.28;4.22;;;;;;;4.36;70.72;101589.70;1830108;78;21645;-49
2021/01/03 10:24:00;;;;;;;4.28;3.40;;;;;;;4.35;70.73;101585.83;1820569;78;21372;-48
2021/01/03 10:26:32;;;;;;;3.90;3.45;;;;;;;4.37;70.67;101583.80;1815288;78;21643;-49
2021/01/03 10:29:02;;;;;;;3.62;3.02;;;;;;;4.33;70.58;101580.64;1830410;78;20966;-51
2021/01/03 10:31:48;;;;;;;3.40;2.92;;;;;;;4.32;70.73;101587.06;1831008;78;21570;-50
2021/01/03 10:34:17;;;;;;;5.45;2.62;;;;;;;4.38;70.76;101590.33;1825480;78;21092;-48
2021/01/03 10:36:45;;;;;;;4.05;2.72;;;;;;;4.38;70.54;101584.94;1830013;78;22037;-48
2021/01/03 10:39:15;;;;;;;4.05;2.83;;;;;;;4.34;70.70;101590.91;1821873;78;20924;-50
2021/01/03 10:41:44;;;;;;;3.08;2.50;;;;;;;4.32;70.86;101583.02;1824324;78;21686;-49
2021/01/03 10:44:13;;;;;;;2.98;2.20;;;;;;;4.37;70.93;101579.75;1829287;78;21103;-50
2021/01/03 10:46:41;;;;;;;3.22;2.52;;;;;;;4.38;70.91;101578.20;1827012;78;21151;-49
2021/01/03 10:49:10;;;;;;;3.62;2.67;;;;;;;4.38;70.92;101581.41;1819898;78;21449;-49
2021/01/03 10:51:42;;;;;;;3.17;2.83;;;;;;;4.39;71.03;101576.34;1829608;77;21177;-47
2021/01/03 10:54:12;;;;;;;4.47;3.20;;;;;;;4.34;71.12;101575.57;1829032;78;21244;-50
2021/01/03 10:56:40;;;;;;;3.98;3.12;;;;;;;4.34;71.34;101567.48;1829207;78;21036;-49
2021/01/03 10:59:09;;;;;;;5.67;3.20;;;;;;;4.39;71.41;101570.43;1831361;77;21562;-49
2021/01/03 11:01:37;;;;;;;4.75;2.83;;;;;;;4.46;71.33;101567.81;1834025;77;21264;-48
2021/01/03 11:04:07;;;;;;;4.08;2.77;;;;;;;4.46;71.26;101567.81;1831374;77;21135;-48
2021/01/03 11:06:40;;;;;;;5.47;2.72;;;;;;;4.48;71.34;101567.61;1829651;77;21115;-47
2021/01/03 11:09:22;;;;;;;4.40;2.35;;;;;;;4.51;71.33;101565.84;1830255;78;21163;-48
2021/01/03 11:11:50;;;;;;;4.00;3.20;;;;;;;4.53;71.37;101565.16;1837380;77;21036;-47
2021/01/03 11:14:19;;;;;;;2.92;2.37;;;;;;;4.50;71.49;101562.84;1837076;77;22018;-48
2021/01/03 11:16:47;;;;;;;3.67;3.20;;;;;;;4.50;71.58;101555.59;1830153;77;21126;-49
2021/01/03 11:19:16;;;;;;;4.53;3.12;;;;;;;4.44;71.64;101555.03;1827977;77;22500;-47
2021/01/03 11:21:44;;;;;;;4.00;3.07;;;;;;;4.46;71.74;101552.13;1811635;77;21062;-47
2021/01/03 11:24:12;;;;;;;3.17;2.70;;;;;;;4.43;71.82;101552.85;1828858;77;21146;-49
2021/01/03 11:26:42;;;;;;;3.40;2.72;;;;;;;4.45;71.92;101551.81;1833446;77;22199;-48
2021/01/03 11:29:14;;;;;;;3.08;2.77;;;;;;;4.50;71.93;101552.89;1835999;77;21671;-48
2021/01/03 11:31:45;;;;;;;3.98;2.72;;;;;;;4.55;73.17;101546.41;1831687;77;21026;-47
2021/01/03 11:34:16;;;;;;;3.12;2.77;;;;;;;4.68;72.54;101549.72;1830526;77;21199;-50
2021/01/03 11:36:51;;;;;;;4.17;3.17;;;;;;;4.74;72.18;101544.88;1839931;77;21150;-54
2021/01/03 11:39:20;;;;;;;3.15;2.65;;;;;;;4.75;72.47;101546.54;1830745;77;22107;-50
2021/01/03 11:41:49;;;;;;;4.12;3.20;;;;;;;4.76;72.43;101544.16;1833622;77;21226;-49
2021/01/03 11:44:20;;;;;;;3.75;2.75;;;;;;;4.78;72.56;101540.77;1830445;77;21601;-52
2021/01/03 11:46:52;;;;;;;2.95;2.30;;;;;;;4.82;72.50;101543.39;1841335;77;21146;-49
2021/01/03 11:49:21;;;;;;;3.33;3.02;;;;;;;4.94;72.23;101554.45;1837724;77;21158;-49
2021/01/03 11:51:49;;;;;;;3.40;2.50;;;;;;;4.94;72.23;101554.45;1837668;77;22114;-47
2021/01/03 11:54:17;;;;;;;2.75;2.47;;;;;;;4.98;71.81;101544.93;1821429;77;21139;-47
2021/01/03 11:56:46;;;;;;;3.98;3.22;;;;;;;4.89;71.58;101542.07;1835806;77;20994;-52
2021/01/03 11:59:15;;;;;;;2.87;2.40;;;;;;;4.89;71.58;101542.07;1828081;77;21007;-51
2021/01/03 12:01:43;;;;;;;3.92;2.52;;;;;;;4.84;71.69;101537.79;1824632;77;20948;-49
2021/01/03 12:04:11;;;;;;;3.98;2.75;;;;;;;4.86;71.74;101535.20;1838230;77;21381;-53
2021/01/03 12:06:39;;;;;;;3.80;2.58;;;;;;;4.89;71.70;101542.07;1831063;77;21124;-54
2021/01/03 12:09:07;;;;;;;2.92;2.62;;;;;;;4.89;71.70;101542.07;1822771;77;20890;-51
2021/01/03 12:11:34;;;;;;;3.10;2.80;;;;;;;4.89;71.57;101533.47;1831116;77;21738;-50